Time;durP1;ratioP1;P1;durP2;ratioP2;P2;SDS_P1;SDS_P2;PMS_P1;PMS_P2;Temp;Humidity;BMP_temperature;BMP_pressure;BME280_temperature;BME280_humidity;BME280_pressure;Samples;Min_cycle;Max_cycle;Signal;HPM_P1;HPM_P2
2023/12/07 06:16:59;;;;;;;;;;;0.90;99.90;;;;;;5064580;28;19924;-82
2023/12/07 06:19:42;;;;;;;;;;;0.90;99.90;;;;;;5053413;28;19931;-84
2023/12/07 06:22:08;;;;;;;;;;;0.90;99.90;;;;;;5057309;28;19912;-83
2023/12/07 06:24:35;;;;;;;;;;;1.00;99.90;;;;;;5073776;28;19962;-84
2023/12/07 06:27:01;;;;;;;;;;;1.00;99.90;;;;;;5042162;28;19912;-81
2023/12/07 06:29:29;;;;;;;;;;;1.00;99.90;;;;;;5050756;28;19921;-84
2023/12/07 06:31:57;;;;;;;;;;;1.00;99.90;;;;;;5046110;28;19920;-84
2023/12/07 06:34:23;;;;;;;;;;;1.00;99.90;;;;;;5050415;28;19909;-83
2023/12/07 06:36:49;;;;;;;;;;;1.00;99.90;;;;;;5061590;28;19955;-82
2023/12/07 06:39:14;;;;;;;;;;;1.00;99.90;;;;;;5080372;28;20335;-82
2023/12/07 06:41:40;;;;;;;;;;;1.00;99.90;;;;;;5083240;28;19912;-83
2023/12/07 06:44:06;;;;;;;;;;;1.00;99.90;;;;;;5081561;28;20595;-83
2023/12/07 06:46:32;;;;;;;;;;;1.00;99.90;;;;;;5082291;28;19994;-83
2023/12/07 06:48:57;;;;;;;;;;;1.00;99.90;;;;;;5082558;28;20011;-81
2023/12/07 06:51:23;;;;;;;;;;;1.00;99.90;;;;;;5082533;28;19912;-83
2023/12/07 06:53:49;;;;;;;;;;;1.00;99.90;;;;;;5079176;28;19920;-82
2023/12/07 06:56:15;;;;;;;;;;;1.00;99.90;;;;;;5079304;28;20400;-80
2023/12/07 06:58:41;;;;;;;;;;;0.90;99.90;;;;;;5075852;28;19933;-80
2023/12/07 07:01:06;;;;;;;;;;;1.00;99.90;;;;;;5073630;28;19908;-84
2023/12/07 07:03:32;;;;;;;;;;;1.00;99.90;;;;;;5069983;28;19920;-83
2023/12/07 07:05:59;;;;;;;;;;;0.90;99.90;;;;;;5066352;28;19927;-82
2023/12/07 07:08:25;;;;;;;;;;;0.90;99.90;;;;;;5063032;28;19923;-83
2023/12/07 07:10:51;;;;;;;;;;;0.90;99.90;;;;;;5081560;28;19911;-83
2023/12/07 07:13:17;;;;;;;;;;;0.90;99.90;;;;;;5048549;28;20370;-82
2023/12/07 07:15:43;;;;;;;;;;;0.90;99.90;;;;;;5050695;28;19916;-85
2023/12/07 07:18:09;;;;;;;;;;;0.90;99.90;;;;;;5055052;28;19983;-84
2023/12/07 07:20:35;;;;;;;;;;;0.90;99.90;;;;;;5057601;28;20370;-83
2023/12/07 07:23:00;;;;;;;;;;;1.00;99.90;;;;;;5064546;28;19909;-84
2023/12/07 07:25:26;;;;;;;;;;;0.90;99.90;;;;;;5063012;28;19962;-81
2023/12/07 07:27:53;;;;;;;;;;;0.80;99.90;;;;;;5067047;28;20008;-80
2023/12/07 07:30:19;;;;;;;;;;;0.80;99.90;;;;;;5071042;28;19908;-81
2023/12/07 07:32:45;;;;;;;;;;;0.80;99.90;;;;;;5073367;28;19916;-80
2023/12/07 07:35:11;;;;;;;;;;;0.80;99.90;;;;;;5076265;28;19908;-83
2023/12/07 07:37:38;;;;;;;;;;;0.80;99.90;;;;;;5052356;28;20003;-81
2023/12/07 07:40:06;;;;;;;;;;;0.80;99.90;;;;;;5070777;28;19938;-82
2023/12/07 07:42:32;;;;;;;;;;;0.80;99.90;;;;;;5063586;28;19982;-83
2023/12/07 07:44:58;;;;;;;;;;;0.80;99.90;;;;;;5082519;28;20606;-83
2023/12/07 07:47:23;;;;;;;;;;;0.80;99.90;;;;;;5073175;28;19955;-83
2023/12/07 07:49:49;;;;;;;;;;;0.80;99.90;;;;;;5078882;28;19912;-83
2023/12/07 07:52:15;;;;;;;;;;;0.80;99.90;;;;;;5078017;28;19912;-82
2023/12/07 07:54:41;;;;;;;;;;;0.80;99.90;;;;;;5086791;28;19923;-83
2023/12/07 07:57:06;;;;;;;;;;;0.70;99.90;;;;;;5037661;28;19912;-81
2023/12/07 07:59:32;;;;;;;;;;;0.70;99.90;;;;;;5055411;28;19917;-84
2023/12/07 08:01:58;;;;;;;;;;;0.70;99.90;;;;;;5070326;28;19917;-85
2023/12/07 08:04:24;;;;;;;;;;;0.80;99.90;;;;;;5035625;28;19982;-83
2023/12/07 08:06:49;;;;;;;;;;;0.80;99.90;;;;;;5068967;28;19940;-84
2023/12/07 08:09:15;;;;;;;;;;;0.80;99.90;;;;;;5055572;28;19917;-81
2023/12/07 08:11:41;;;;;;;;;;;0.80;99.90;;;;;;5069049;28;20029;-81
2023/12/07 08:14:06;;;;;;;;;;;0.80;99.90;;;;;;5074798;28;19917;-84
2023/12/07 08:16:32;;;;;;;;;;;0.90;99.90;;;;;;5078614;28;19924;-83
2023/12/07 08:18:58;;;;;;;;;;;0.90;99.90;;;;;;5077245;28;19912;-81
2023/12/07 08:21:25;;;;;;;;;;;0.90;99.90;;;;;;5070907;28;20382;-79
2023/12/07 08:23:51;;;;;;;;;;;0.90;99.90;;;;;;5074985;28;20362;-83
2023/12/07 08:26:17;;;;;;;;;;;0.90;99.90;;;;;;5050690;28;19984;-82
2023/12/07 08:28:42;;;;;;;;;;;0.90;99.90;;;;;;5078535;28;19951;-82
2023/12/07 08:31:08;;;;;;;;;;;1.00;99.90;;;;;;5068296;28;19908;-81
2023/12/07 08:33:39;;;;;;;;;;;1.00;99.90;;;;;;5086457;28;19916;-82
2023/12/07 08:36:05;;;;;;;;;;;1.00;99.90;;;;;;5099080;28;20278;-80
2023/12/07 08:38:31;;;;;;;;;;;1.00;99.90;;;;;;5085838;28;20289;-83
2023/12/07 08:40:57;;;;;;;;;;;1.00;99.90;;;;;;5066987;28;19908;-85
2023/12/07 08:43:24;;;;;;;;;;;1.10;99.90;;;;;;5059589;28;21001;-85
2023/12/07 08:45:50;;;;;;;;;;;1.10;99.90;;;;;;5055973;28;19985;-84
2023/12/07 08:48:15;;;;;;;;;;;1.00;99.90;;;;;;5071282;28;19947;-85
2023/12/07 08:50:41;;;;;;;;;;;1.10;99.90;;;;;;5087824;28;20521;-85
2023/12/07 08:53:07;;;;;;;;;;;1.10;99.90;;;;;;5062254;28;19916;-84
2023/12/07 08:55:33;;;;;;;;;;;1.10;99.90;;;;;;5069807;28;19919;-83
2023/12/07 08:58:00;;;;;;;;;;;1.10;99.90;;;;;;5073414;28;19993;-83
2023/12/07 09:00:25;;;;;;;;;;;1.20;99.90;;;;;;5073080;28;19920;-84
2023/12/07 09:02:51;;;;;;;;;;;1.20;99.90;;;;;;5080575;28;20042;-81
2023/12/07 09:05:17;;;;;;;;;;;1.20;99.90;;;;;;5084424;28;19916;-83
2023/12/07 09:07:43;;;;;;;;;;;1.20;99.90;;;;;;5063007;28;19908;-82
2023/12/07 09:10:09;;;;;;;;;;;1.20;99.90;;;;;;5063501;28;19919;-82
2023/12/07 09:12:38;;;;;;;;;;;1.20;99.90;;;;;;5082190;28;20314;-82
2023/12/07 09:15:04;;;;;;;;;;;1.20;99.90;;;;;;5086737;28;19919;-82
2023/12/07 09:17:29;;;;;;;;;;;1.20;99.90;;;;;;5080573;28;19916;-81
2023/12/07 09:19:55;;;;;;;;;;;1.20;99.90;;;;;;5072783;28;19990;-82
2023/12/07 09:22:21;;;;;;;;;;;1.20;99.90;;;;;;5097987;28;19959;-82
2023/12/07 09:24:46;;;;;;;;;;;1.30;99.90;;;;;;5079464;28;19909;-83
2023/12/07 09:27:13;;;;;;;;;;;1.30;99.90;;;;;;5095892;28;19934;-79
2023/12/07 09:29:38;;;;;;;;;;;1.30;99.90;;;;;;5085950;28;19912;-81
2023/12/07 09:32:05;;;;;;;;;;;1.30;99.90;;;;;;5090766;28;19909;-82
2023/12/07 09:34:30;;;;;;;;;;;1.30;99.90;;;;;;5063506;28;19909;-80
2023/12/07 09:37:07;;;;;;;;;;;1.30;99.90;;;;;;5076153;28;19919;-83
2023/12/07 09:39:32;;;;;;;;;;;1.40;99.90;;;;;;5071643;28;19916;-80
2023/12/07 09:41:58;;;;;;;;;;;1.40;99.90;;;;;;5047335;28;20330;-82
2023/12/07 09:44:24;;;;;;;;;;;1.40;99.90;;;;;;5081584;28;19924;-81
2023/12/07 09:46:57;;;;;;;;;;;1.40;99.90;;;;;;5064487;28;20279;-82
2023/12/07 09:49:23;;;;;;;;;;;1.40;99.90;;;;;;5041514;28;20173;-80
2023/12/07 09:51:49;;;;;;;;;;;1.40;99.90;;;;;;5060641;28;19958;-81
2023/12/07 09:54:15;;;;;;;;;;;1.40;99.90;;;;;;5057560;28;19934;-83
2023/12/07 09:56:41;;;;;;;;;;;1.50;99.90;;;;;;5075638;28;19920;-83
2023/12/07 09:59:07;;;;;;;;;;;1.50;99.90;;;;;;5040489;28;20282;-82
2023/12/07 10:01:35;;;;;;;;;;;1.40;99.90;;;;;;5079245;28;19915;-83
2023/12/07 10:04:17;;;;;;;;;;;1.40;99.90;;;;;;5068329;28;19900;-82
2023/12/07 10:06:44;;;;;;;;;;;1.40;99.90;;;;;;5040236;28;20012;-84
2023/12/07 10:09:11;;;;;;;;;;;1.40;99.90;;;;;;5061371;28;19955;-83
2023/12/07 10:11:37;;;;;;;;;;;1.40;99.90;;;;;;5043013;28;19913;-82
2023/12/07 10:14:02;;;;;;;;;;;1.50;99.90;;;;;;5096537;28;20366;-83
2023/12/07 10:16:28;;;;;;;;;;;1.50;99.90;;;;;;5078730;28;19927;-83
2023/12/07 10:18:53;;;;;;;;;;;1.40;99.90;;;;;;5081700;28;20392;-81
2023/12/07 10:21:31;;;;;;;;;;;1.40;99.90;;;;;;5083925;28;19957;-82
2023/12/07 10:23:57;;;;;;;;;;;1.40;99.90;;;;;;5075468;28;20393;-82
2023/12/07 10:26:22;;;;;;;;;;;1.40;99.90;;;;;;5064068;28;19962;-82
2023/12/07 10:28:52;;;;;;;;;;;1.40;99.90;;;;;;5074529;28;19908;-83
2023/12/07 10:31:18;;;;;;;;;;;1.40;99.90;;;;;;5070362;28;19912;-85
2023/12/07 10:33:47;;;;;;;;;;;1.50;99.90;;;;;;5053059;28;20331;-83
2023/12/07 10:36:13;;;;;;;;;;;1.40;99.90;;;;;;5055608;28;19995;-82
2023/12/07 10:38:41;;;;;;;;;;;1.50;99.90;;;;;;5086495;28;20361;-84
2023/12/07 10:41:09;;;;;;;;;;;1.50;99.90;;;;;;5085544;28;19919;-83
2023/12/07 10:43:36;;;;;;;;;;;1.50;99.90;;;;;;5073442;28;19916;-84
2023/12/07 10:46:02;;;;;;;;;;;1.50;99.90;;;;;;5054960;28;19915;-85
2023/12/07 10:48:31;;;;;;;;;;;1.50;99.90;;;;;;5062558;28;20061;-84
2023/12/07 10:50:59;;;;;;;;;;;1.50;99.90;;;;;;5073171;28;19920;-84
2023/12/07 10:53:32;;;;;;;;;;;1.50;99.90;;;;;;5039602;28;19920;-83
2023/12/07 10:56:01;;;;;;;;;;;1.60;99.90;;;;;;5059144;28;20385;-84
2023/12/07 10:58:27;;;;;;;;;;;1.60;99.90;;;;;;5089193;28;19916;-85
2023/12/07 11:00:53;;;;;;;;;;;1.60;99.90;;;;;;5037732;28;19913;-85
2023/12/07 11:03:20;;;;;;;;;;;1.60;99.90;;;;;;5057064;28;19904;-84
2023/12/07 11:05:49;;;;;;;;;;;1.60;99.90;;;;;;5075796;28;20388;-86
2023/12/07 11:08:26;;;;;;;;;;;1.60;99.90;;;;;;5054829;28;19916;-84
2023/12/07 11:10:57;;;;;;;;;;;1.60;99.90;;;;;;5052964;28;20378;-85
2023/12/07 11:13:27;;;;;;;;;;;1.70;99.90;;;;;;5039888;28;19930;-85
2023/12/07 11:15:53;;;;;;;;;;;1.60;99.90;;;;;;5062292;28;19912;-86
2023/12/07 11:18:19;;;;;;;;;;;1.60;99.90;;;;;;5089619;28;19919;-85
2023/12/07 11:20:47;;;;;;;;;;;1.60;99.90;;;;;;5036304;28;19908;-86
2023/12/07 11:23:16;;;;;;;;;;;1.70;99.90;;;;;;5052338;28;19916;-85
2023/12/07 11:25:43;;;;;;;;;;;1.70;99.90;;;;;;5062590;28;19956;-86
2023/12/07 11:28:12;;;;;;;;;;;1.60;99.90;;;;;;5068705;28;19912;-84
2023/12/07 11:30:38;;;;;;;;;;;1.70;99.90;;;;;;5072284;28;19924;-86
2023/12/07 11:33:04;;;;;;;;;;;1.70;99.90;;;;;;5096720;28;20278;-84
2023/12/07 11:35:30;;;;;;;;;;;1.70;99.90;;;;;;5085308;28;19920;-87
2023/12/07 11:38:11;;;;;;;;;;;1.80;99.90;;;;;;5043921;28;19908;-86
2023/12/07 11:40:40;;;;;;;;;;;1.80;99.90;;;;;;5055625;28;19918;-85
2023/12/07 11:43:10;;;;;;;;;;;1.80;99.90;;;;;;5038513;28;19908;-86
2023/12/07 11:45:40;;;;;;;;;;;1.90;99.90;;;;;;5058897;28;19921;-85
2023/12/07 11:48:06;;;;;;;;;;;1.90;99.90;;;;;;5075643;28;19912;-86
2023/12/07 11:50:32;;;;;;;;;;;1.90;99.90;;;;;;5079448;28;20033;-86
2023/12/07 11:52:59;;;;;;;;;;;2.00;99.90;;;;;;5054724;28;19952;-87
2023/12/07 11:55:24;;;;;;;;;;;2.00;99.90;;;;;;5065886;28;19908;-87
2023/12/07 11:57:50;;;;;;;;;;;1.90;99.90;;;;;;5073077;28;19958;-85
2023/12/07 12:00:16;;;;;;;;;;;2.00;99.90;;;;;;5057653;28;19923;-88
2023/12/07 12:02:42;;;;;;;;;;;2.10;99.90;;;;;;5061028;28;19999;-86
2023/12/07 12:05:09;;;;;;;;;;;2.20;99.90;;;;;;5025167;28;19966;-86
2023/12/07 12:07:35;;;;;;;;;;;2.10;99.90;;;;;;5061523;28;19995;-86
2023/12/07 12:10:03;;;;;;;;;;;2.10;99.90;;;;;;5019228;28;20003;-88
2023/12/07 12:12:29;;;;;;;;;;;2.10;99.90;;;;;;5040586;28;19909;-86
2023/12/07 12:14:55;;;;;;;;;;;2.10;99.90;;;;;;5056163;28;19912;-87
2023/12/07 12:17:20;;;;;;;;;;;2.10;99.90;;;;;;5042919;28;19916;-87
2023/12/07 12:19:46;;;;;;;;;;;2.10;99.90;;;;;;5067197;28;19912;-88
2023/12/07 12:22:12;;;;;;;;;;;2.10;99.90;;;;;;5033548;28;19909;-87
2023/12/07 12:24:39;;;;;;;;;;;2.00;99.90;;;;;;5068571;28;20324;-88
2023/12/07 12:27:05;;;;;;;;;;;2.00;99.90;;;;;;5076726;28;19913;-87
2023/12/07 12:29:31;;;;;;;;;;;2.00;99.90;;;;;;5039830;28;20622;-84
2023/12/07 12:31:57;;;;;;;;;;;1.90;99.90;;;;;;5073891;28;19904;-86
2023/12/07 12:34:23;;;;;;;;;;;1.80;99.90;;;;;;5069857;28;20365;-84
2023/12/07 12:36:49;;;;;;;;;;;1.90;99.90;;;;;;5050502;28;20293;-85
2023/12/07 12:39:15;;;;;;;;;;;1.80;99.90;;;;;;5063586;28;20091;-84
2023/12/07 12:41:41;;;;;;;;;;;1.80;99.90;;;;;;5065119;28;19908;-86
2023/12/07 12:44:07;;;;;;;;;;;1.90;99.90;;;;;;5067649;28;19969;-85
2023/12/07 12:46:34;;;;;;;;;;;1.90;99.90;;;;;;5041115;28;19918;-84
2023/12/07 12:49:00;;;;;;;;;;;1.90;99.90;;;;;;5064435;28;19912;-84
2023/12/07 12:51:27;;;;;;;;;;;1.90;99.90;;;;;;5045773;28;20033;-85
2023/12/07 12:53:53;;;;;;;;;;;1.90;99.90;;;;;;5066231;28;21438;-83
2023/12/07 12:56:21;;;;;;;;;;;1.80;99.90;;;;;;5075800;28;19920;-83
2023/12/07 12:58:50;;;;;;;;;;;1.80;99.90;;;;;;5039967;28;19913;-84
2023/12/07 13:01:17;;;;;;;;;;;1.80;99.90;;;;;;5070135;28;19965;-84
2023/12/07 13:03:45;;;;;;;;;;;1.70;99.90;;;;;;5054056;28;19930;-84
2023/12/07 13:06:11;;;;;;;;;;;1.70;99.90;;;;;;5074179;28;19951;-84
2023/12/07 13:08:37;;;;;;;;;;;1.70;99.90;;;;;;5071257;28;19927;-84
2023/12/07 13:11:03;;;;;;;;;;;1.70;99.90;;;;;;5030598;28;19913;-85
2023/12/07 13:13:29;;;;;;;;;;;1.80;99.90;;;;;;5048814;28;19953;-86
2023/12/07 13:15:55;;;;;;;;;;;1.70;99.90;;;;;;5065852;28;19917;-85
2023/12/07 13:18:20;;;;;;;;;;;1.70;99.90;;;;;;5052604;28;19928;-86
2023/12/07 13:20:46;;;;;;;;;;;1.60;99.90;;;;;;5052398;28;20015;-84
2023/12/07 13:23:12;;;;;;;;;;;1.50;99.90;;;;;;5047110;28;19954;-83
2023/12/07 13:25:37;;;;;;;;;;;1.50;99.90;;;;;;5072185;28;19912;-86
2023/12/07 13:28:03;;;;;;;;;;;1.40;99.90;;;;;;5071183;28;19916;-84
2023/12/07 13:30:33;;;;;;;;;;;1.50;99.90;;;;;;5068353;28;19924;-84
2023/12/07 13:32:59;;;;;;;;;;;1.50;99.90;;;;;;5067783;28;19916;-83
2023/12/07 13:35:25;;;;;;;;;;;1.50;99.90;;;;;;5058752;28;20003;-85
2023/12/07 13:37:51;;;;;;;;;;;1.50;99.90;;;;;;5025468;28;20390;-85
2023/12/07 13:40:16;;;;;;;;;;;1.40;99.90;;;;;;5065052;28;19934;-86
2023/12/07 13:47:58;;;;;;;;;;;1.40;99.90;;;;;;5033448;28;19940;-88
2023/12/07 13:50:24;;;;;;;;;;;1.40;99.90;;;;;;5024488;28;19916;-85
2023/12/07 13:52:49;;;;;;;;;;;1.40;99.90;;;;;;5016028;28;20390;-87
2023/12/07 13:55:15;;;;;;;;;;;1.50;99.90;;;;;;5034206;28;20275;-87
2023/12/07 13:57:41;;;;;;;;;;;1.40;99.90;;;;;;5055589;28;19913;-88
2023/12/07 14:00:07;;;;;;;;;;;1.30;99.90;;;;;;5034981;28;20535;-87
2023/12/07 14:02:32;;;;;;;;;;;1.20;99.90;;;;;;5048648;28;19919;-87
2023/12/07 14:04:58;;;;;;;;;;;1.20;99.90;;;;;;5015257;28;19912;-87
2023/12/07 14:07:24;;;;;;;;;;;1.10;99.90;;;;;;5035984;28;19948;-88
2023/12/07 14:09:50;;;;;;;;;;;1.10;99.90;;;;;;5021121;28;19924;-87
2023/12/07 14:12:16;;;;;;;;;;;1.10;99.90;;;;;;5004941;28;19912;-85
2023/12/07 14:14:43;;;;;;;;;;;1.00;99.90;;;;;;5036750;28;19908;-86
2023/12/07 14:17:10;;;;;;;;;;;1.00;99.90;;;;;;5041220;28;19908;-86
2023/12/07 14:19:36;;;;;;;;;;;1.00;99.90;;;;;;5024496;28;19913;-87
2023/12/07 14:22:02;;;;;;;;;;;0.90;99.90;;;;;;5045951;28;19912;-86
2023/12/07 14:24:28;;;;;;;;;;;0.90;99.90;;;;;;5061746;28;19948;-86
2023/12/07 14:26:54;;;;;;;;;;;0.80;99.90;;;;;;5022746;28;19912;-88
2023/12/07 14:29:20;;;;;;;;;;;0.80;99.90;;;;;;5032399;28;19939;-88
2023/12/07 14:31:47;;;;;;;;;;;0.80;99.90;;;;;;5052092;28;19970;-87
2023/12/07 14:34:14;;;;;;;;;;;0.80;99.90;;;;;;5040268;28;19951;-86
2023/12/07 14:36:41;;;;;;;;;;;0.80;99.90;;;;;;5055349;28;19923;-87
2023/12/07 14:39:07;;;;;;;;;;;0.70;99.90;;;;;;5053311;28;19912;-87
2023/12/07 14:41:33;;;;;;;;;;;0.70;99.90;;;;;;5020229;28;19912;-86
2023/12/07 14:43:59;;;;;;;;;;;0.70;99.90;;;;;;5051362;28;19915;-85
2023/12/07 14:46:25;;;;;;;;;;;0.70;99.90;;;;;;5025567;28;19913;-85
2023/12/07 14:48:51;;;;;;;;;;;0.70;99.90;;;;;;5017810;28;20566;-85
2023/12/07 14:51:22;;;;;;;;;;;0.70;99.90;;;;;;5037932;28;20337;-84
2023/12/07 14:53:48;;;;;;;;;;;0.60;99.90;;;;;;5017354;28;19956;-83
2023/12/07 14:56:14;;;;;;;;;;;0.60;99.90;;;;;;5038139;28;19920;-85
2023/12/07 14:58:39;;;;;;;;;;;0.60;99.90;;;;;;5053488;28;19909;-85
2023/12/07 15:01:05;;;;;;;;;;;0.60;99.90;;;;;;5066492;28;19915;-85
2023/12/07 15:03:31;;;;;;;;;;;0.50;99.90;;;;;;5018990;28;19915;-85
2023/12/07 15:05:57;;;;;;;;;;;0.50;99.90;;;;;;5027962;28;20074;-85
2023/12/07 15:08:22;;;;;;;;;;;0.50;99.90;;;;;;5033913;28;19916;-86
2023/12/07 15:10:52;;;;;;;;;;;0.50;99.90;;;;;;5055402;28;19913;-85
2023/12/07 15:13:18;;;;;;;;;;;0.50;99.90;;;;;;5059537;28;19932;-86
2023/12/07 15:15:44;;;;;;;;;;;0.50;99.90;;;;;;5032195;28;19920;-84
2023/12/07 15:18:09;;;;;;;;;;;0.40;99.90;;;;;;5046588;28;19909;-84
2023/12/07 15:20:35;;;;;;;;;;;0.30;99.90;;;;;;5051382;28;19913;-87
2023/12/07 15:23:02;;;;;;;;;;;0.30;99.90;;;;;;5035029;28;19960;-88
2023/12/07 15:25:29;;;;;;;;;;;0.30;99.90;;;;;;5051369;28;19962;-88
2023/12/07 15:27:54;;;;;;;;;;;0.30;99.90;;;;;;5036477;28;19913;-86
2023/12/07 15:30:23;;;;;;;;;;;0.30;99.90;;;;;;5037062;28;19918;-89
2023/12/07 15:32:52;;;;;;;;;;;0.20;99.90;;;;;;5025028;28;19948;-87
2023/12/07 15:35:18;;;;;;;;;;;0.20;99.90;;;;;;5045414;28;20046;-87
2023/12/07 15:37:44;;;;;;;;;;;0.20;99.90;;;;;;5038531;28;20414;-88
2023/12/07 15:40:10;;;;;;;;;;;0.10;99.90;;;;;;5036217;28;19913;-85
2023/12/07 15:42:36;;;;;;;;;;;0.00;99.90;;;;;;5034648;28;20287;-85
2023/12/07 15:45:04;;;;;;;;;;;0.00;99.90;;;;;;5017164;28;19920;-85
2023/12/07 15:47:29;;;;;;;;;;;-0.10;99.90;;;;;;5023925;28;20058;-89
2023/12/07 15:49:55;;;;;;;;;;;-0.10;99.90;;;;;;5037621;28;20023;-84
2023/12/07 15:52:21;;;;;;;;;;;-0.10;99.90;;;;;;5034155;28;19908;-87
2023/12/07 15:54:46;;;;;;;;;;;-0.20;99.90;;;;;;5014602;28;19920;-87
2023/12/07 15:57:12;;;;;;;;;;;-0.20;99.90;;;;;;5030936;28;19934;-87
2023/12/07 15:59:38;;;;;;;;;;;-0.20;99.90;;;;;;5044499;28;19962;-88
2023/12/07 16:02:04;;;;;;;;;;;-0.10;99.90;;;;;;5035253;28;19936;-88
2023/12/07 16:04:30;;;;;;;;;;;-0.10;99.90;;;;;;5017801;28;19908;-88
2023/12/07 16:06:55;;;;;;;;;;;-0.10;99.90;;;;;;5023368;28;20007;-88
2023/12/07 16:09:21;;;;;;;;;;;-0.10;99.90;;;;;;5051946;28;20480;-88
2023/12/07 16:11:47;;;;;;;;;;;-0.10;99.90;;;;;;5033215;28;19913;-85
2023/12/07 16:14:13;;;;;;;;;;;-0.20;99.90;;;;;;5055397;28;20117;-86
2023/12/07 16:16:39;;;;;;;;;;;-0.20;99.90;;;;;;5038613;28;19958;-86
2023/12/07 16:19:04;;;;;;;;;;;-0.20;99.90;;;;;;5056474;28;19991;-86
2023/12/07 16:21:31;;;;;;;;;;;-0.20;99.90;;;;;;5020076;28;20395;-88
2023/12/07 16:23:57;;;;;;;;;;;-0.30;99.90;;;;;;5026822;28;19913;-88
2023/12/07 16:26:23;;;;;;;;;;;-0.30;99.90;;;;;;5029944;28;20500;-87
2023/12/07 16:28:49;;;;;;;;;;;-0.40;99.90;;;;;;5042082;28;19919;-85
2023/12/07 16:31:14;;;;;;;;;;;-0.40;99.90;;;;;;5032321;28;19909;-87
2023/12/07 16:33:40;;;;;;;;;;;-0.60;99.90;;;;;;5037404;28;20398;-85
2023/12/07 16:36:06;;;;;;;;;;;-0.60;99.90;;;;;;5035207;28;20566;-86
2023/12/07 16:38:41;;;;;;;;;;;-0.60;99.90;;;;;;5051809;28;20376;-86
2023/12/07 16:41:06;;;;;;;;;;;-0.50;99.90;;;;;;5048894;28;19939;-87
2023/12/07 16:43:32;;;;;;;;;;;-0.50;99.90;;;;;;5022253;28;20363;-87
2023/12/07 16:45:58;;;;;;;;;;;-0.50;99.90;;;;;;5040771;28;19917;-87
2023/12/07 16:48:24;;;;;;;;;;;-0.60;99.90;;;;;;5042014;28;19924;-85
2023/12/07 16:50:49;;;;;;;;;;;-0.60;99.90;;;;;;5024024;28;19924;-87
2023/12/07 16:53:15;;;;;;;;;;;-0.60;99.90;;;;;;5014532;28;19911;-87
2023/12/07 16:55:43;;;;;;;;;;;-0.60;99.90;;;;;;5019826;28;19983;-87
2023/12/07 16:58:09;;;;;;;;;;;-0.60;99.90;;;;;;5036547;28;19948;-84
2023/12/07 17:00:34;;;;;;;;;;;-0.60;99.90;;;;;;5009350;28;19943;-85
2023/12/07 17:03:00;;;;;;;;;;;-0.60;99.90;;;;;;5033144;28;20003;-86
2023/12/07 17:05:25;;;;;;;;;;;-0.70;99.90;;;;;;5044528;28;19975;-87
2023/12/07 17:07:51;;;;;;;;;;;-0.80;99.90;;;;;;5039076;28;19913;-85
2023/12/07 17:10:17;;;;;;;;;;;-0.80;99.90;;;;;;5017595;28;19948;-85
2023/12/07 17:12:43;;;;;;;;;;;-0.80;99.90;;;;;;5055081;28;20007;-85
2023/12/07 17:15:09;;;;;;;;;;;-0.90;99.90;;;;;;5013796;28;19913;-86
2023/12/07 17:17:35;;;;;;;;;;;-0.90;99.90;;;;;;5001664;28;19967;-86
2023/12/07 17:20:02;;;;;;;;;;;-0.90;99.90;;;;;;5021647;28;19919;-87
2023/12/07 17:22:27;;;;;;;;;;;-0.90;99.90;;;;;;5018785;28;19959;-86
2023/12/07 17:24:53;;;;;;;;;;;-0.90;99.90;;;;;;5051602;28;20004;-86
2023/12/07 17:27:19;;;;;;;;;;;-1.00;99.90;;;;;;5059838;28;19976;-87
2023/12/07 17:29:44;;;;;;;;;;;-1.00;99.90;;;;;;5058448;28;19970;-87
2023/12/07 17:32:10;;;;;;;;;;;-1.00;99.90;;;;;;5048026;28;20024;-85
2023/12/07 17:34:37;;;;;;;;;;;-1.00;99.90;;;;;;5030795;28;19913;-85
2023/12/07 17:37:03;;;;;;;;;;;-1.00;99.90;;;;;;5045233;28;19951;-88
2023/12/07 17:39:29;;;;;;;;;;;-1.00;99.90;;;;;;5040329;28;20064;-85
2023/12/07 17:41:55;;;;;;;;;;;-1.10;99.90;;;;;;5024437;28;19948;-87
2023/12/07 17:44:20;;;;;;;;;;;-1.10;99.90;;;;;;5060970;28;19916;-88
2023/12/07 17:46:46;;;;;;;;;;;-1.00;99.90;;;;;;5039902;28;20378;-89
2023/12/07 17:49:12;;;;;;;;;;;-1.00;99.90;;;;;;5027545;28;19913;-88
2023/12/07 17:51:37;;;;;;;;;;;-1.10;99.90;;;;;;5041553;28;19935;-85
2023/12/07 17:54:03;;;;;;;;;;;-1.00;99.90;;;;;;5059429;28;19912;-86
2023/12/07 17:56:29;;;;;;;;;;;-1.00;99.90;;;;;;5027984;28;19917;-87
2023/12/07 17:58:55;;;;;;;;;;;-1.00;99.90;;;;;;5045398;28;19908;-85
2023/12/07 18:01:21;;;;;;;;;;;-1.00;99.90;;;;;;5034470;28;20354;-87
2023/12/07 18:03:47;;;;;;;;;;;-1.00;99.90;;;;;;5035395;28;19939;-87
2023/12/07 18:06:13;;;;;;;;;;;-1.00;99.90;;;;;;5055991;28;19904;-86
2023/12/07 18:08:38;;;;;;;;;;;-1.10;99.90;;;;;;5047426;28;19917;-86
2023/12/07 18:11:04;;;;;;;;;;;-1.10;99.90;;;;;;5054543;28;20775;-86
2023/12/07 18:13:30;;;;;;;;;;;-1.10;99.90;;;;;;5069464;28;19984;-86
2023/12/07 18:15:55;;;;;;;;;;;-1.00;99.90;;;;;;5053071;28;19912;-85
2023/12/07 18:18:21;;;;;;;;;;;-1.00;99.90;;;;;;5036113;28;19923;-88
2023/12/07 18:20:46;;;;;;;;;;;-1.00;99.90;;;;;;5035161;28;20162;-88
2023/12/07 18:23:12;;;;;;;;;;;-1.00;99.90;;;;;;5033600;28;19920;-87
2023/12/07 18:25:38;;;;;;;;;;;-1.00;99.90;;;;;;5030644;28;20003;-85
2023/12/07 18:28:04;;;;;;;;;;;-0.90;99.90;;;;;;5025630;28;19912;-87
2023/12/07 18:30:29;;;;;;;;;;;-0.90;99.90;;;;;;5025096;28;20210;-87
2023/12/07 18:32:56;;;;;;;;;;;-0.90;99.90;;;;;;5034357;28;19936;-87
2023/12/07 18:35:22;;;;;;;;;;;-0.90;99.90;;;;;;5045793;28;19948;-90
2023/12/07 18:37:48;;;;;;;;;;;-0.90;99.90;;;;;;5014940;28;19920;-89
2023/12/07 18:40:14;;;;;;;;;;;-0.90;99.90;;;;;;5012022;28;19917;-85
2023/12/07 18:42:40;;;;;;;;;;;-1.00;99.90;;;;;;5015455;28;19912;-87
2023/12/07 18:45:06;;;;;;;;;;;-0.90;99.90;;;;;;5034451;28;19920;-83
2023/12/07 18:47:31;;;;;;;;;;;-0.90;99.90;;;;;;5036402;28;19924;-82
2023/12/07 18:49:57;;;;;;;;;;;-1.00;99.90;;;;;;5045756;28;20464;-84
2023/12/07 18:52:23;;;;;;;;;;;-1.00;99.90;;;;;;5030128;28;19912;-85
2023/12/07 18:54:49;;;;;;;;;;;-1.00;99.90;;;;;;5016955;28;19919;-86
2023/12/07 18:57:14;;;;;;;;;;;-1.00;99.90;;;;;;5020724;28;19944;-85
2023/12/07 18:59:40;;;;;;;;;;;-1.00;99.90;;;;;;5022763;28;19996;-88
2023/12/07 19:02:06;;;;;;;;;;;-1.00;99.90;;;;;;5061952;28;19916;-86
2023/12/07 19:04:31;;;;;;;;;;;-1.00;99.90;;;;;;5018546;28;20330;-87
2023/12/07 19:06:57;;;;;;;;;;;-1.00;99.90;;;;;;5057455;28;20374;-87
2023/12/07 19:09:23;;;;;;;;;;;-1.00;99.90;;;;;;5015042;28;19927;-85
2023/12/07 19:11:48;;;;;;;;;;;-1.10;99.90;;;;;;5016463;28;20271;-85
2023/12/07 19:14:15;;;;;;;;;;;-1.10;99.90;;;;;;5019611;28;19912;-88
2023/12/07 19:16:42;;;;;;;;;;;-1.10;99.90;;;;;;5071299;28;20363;-87
2023/12/07 19:19:07;;;;;;;;;;;-1.10;99.90;;;;;;5042717;28;20569;-86
2023/12/07 19:21:34;;;;;;;;;;;-1.20;99.90;;;;;;5041082;28;19990;-87
2023/12/07 19:23:59;;;;;;;;;;;-1.20;99.90;;;;;;5012451;28;20298;-85
2023/12/07 19:26:25;;;;;;;;;;;-1.20;99.90;;;;;;5030196;28;19974;-87
2023/12/07 19:28:51;;;;;;;;;;;-1.20;99.90;;;;;;5039395;28;19982;-87
2023/12/07 19:31:18;;;;;;;;;;;-1.20;99.90;;;;;;5027094;28;19936;-87
2023/12/07 19:33:43;;;;;;;;;;;-1.30;99.90;;;;;;5056450;28;19912;-85
2023/12/07 19:36:09;;;;;;;;;;;-1.30;99.90;;;;;;5027586;28;19917;-84
2023/12/07 19:38:35;;;;;;;;;;;-1.30;99.90;;;;;;5034106;28;19920;-85
2023/12/07 19:41:04;;;;;;;;;;;-1.30;99.90;;;;;;5015078;28;19940;-88
2023/12/07 19:43:31;;;;;;;;;;;-1.30;99.90;;;;;;5030552;28;20007;-85
2023/12/07 19:45:57;;;;;;;;;;;-1.30;99.90;;;;;;5029454;28;20051;-85
2023/12/07 19:48:22;;;;;;;;;;;-1.30;99.90;;;;;;5032040;28;20381;-87
2023/12/07 19:50:48;;;;;;;;;;;-1.20;99.90;;;;;;5047268;28;19975;-84
2023/12/07 19:53:14;;;;;;;;;;;-1.20;99.90;;;;;;5022430;28;19974;-87
2023/12/07 19:55:39;;;;;;;;;;;-1.10;99.90;;;;;;5009544;28;20374;-86
2023/12/07 19:58:06;;;;;;;;;;;-1.20;99.90;;;;;;5043214;28;20051;-85
2023/12/07 20:00:32;;;;;;;;;;;-1.20;99.90;;;;;;5040653;28;19916;-85
2023/12/07 20:02:57;;;;;;;;;;;-1.20;99.90;;;;;;5028851;28;19909;-87
2023/12/07 20:05:23;;;;;;;;;;;-1.30;99.90;;;;;;5025871;28;19920;-85
2023/12/07 20:07:49;;;;;;;;;;;-1.30;99.90;;;;;;5025960;28;19908;-86
2023/12/07 20:10:15;;;;;;;;;;;-1.30;99.90;;;;;;5034920;28;19951;-84
2023/12/07 20:12:41;;;;;;;;;;;-1.40;99.90;;;;;;5040950;28;20371;-86
2023/12/07 20:15:07;;;;;;;;;;;-1.40;99.90;;;;;;5033949;28;19921;-87
2023/12/07 20:17:32;;;;;;;;;;;-1.50;99.90;;;;;;5042451;28;21084;-87
2023/12/07 20:19:58;;;;;;;;;;;-1.60;99.90;;;;;;5024926;28;20447;-86
2023/12/07 20:22:23;;;;;;;;;;;-1.60;99.90;;;;;;5047565;28;20302;-86
2023/12/07 20:24:49;;;;;;;;;;;-1.70;99.90;;;;;;5031506;28;19986;-85
2023/12/07 20:27:15;;;;;;;;;;;-1.70;99.90;;;;;;5014046;28;19913;-87
2023/12/07 20:29:40;;;;;;;;;;;-1.70;99.90;;;;;;5034216;28;20343;-85
2023/12/07 20:32:06;;;;;;;;;;;-1.70;99.90;;;;;;5037700;28;19924;-87
2023/12/07 20:34:32;;;;;;;;;;;-1.70;99.90;;;;;;5046328;28;20007;-88
2023/12/07 20:36:58;;;;;;;;;;;-1.70;99.90;;;;;;5015707;28;20362;-85
2023/12/07 20:39:24;;;;;;;;;;;-1.70;99.90;;;;;;5014162;28;20349;-86
2023/12/07 20:41:50;;;;;;;;;;;-1.70;99.90;;;;;;5034389;28;19908;-84